createdAt,value
2017-01-18T00:01:32.958Z,97.39
2017-01-18T00:03:45.404Z,97.39
2017-01-18T00:05:57.659Z,97.28
2017-01-18T00:08:05.664Z,97.28
2017-01-18T00:10:18.782Z,97.28
2017-01-18T00:12:31.057Z,97.22
2017-01-18T00:14:43.590Z,97.22
2017-01-18T00:16:55.903Z,97.11
2017-01-18T00:19:03.344Z,97.11
2017-01-18T00:21:11.470Z,97.11
2017-01-18T00:23:33.573Z,97
2017-01-18T00:25:45.944Z,97.05
2017-01-18T00:28:00.106Z,97.05
2017-01-18T00:30:12.365Z,97.05
2017-01-18T00:32:26.017Z,97.05
2017-01-18T00:34:35.447Z,96.94
2017-01-18T00:36:47.779Z,96.94
2017-01-18T00:39:00.053Z,96.94
2017-01-18T00:41:12.664Z,96.94
2017-01-18T00:43:24.269Z,96.94
2017-01-18T00:45:36.965Z,96.94
2017-01-18T00:47:49.549Z,96.83
2017-01-18T00:50:04.058Z,96.83
2017-01-18T00:52:18.088Z,96.83
2017-01-18T00:54:31.266Z,96.83
2017-01-18T00:56:45.261Z,96.83
2017-01-18T00:58:57.626Z,96.83
2017-01-18T01:01:09.891Z,96.83
2017-01-18T01:03:23.660Z,96.83
2017-01-18T01:05:36.180Z,96.94
2017-01-18T01:07:50.550Z,96.94
2017-01-18T01:10:05.651Z,96.94
2017-01-18T01:12:18.541Z,96.94
2017-01-18T01:14:33.402Z,96.94
2017-01-18T01:16:47.921Z,97.05
2017-01-18T01:18:55.198Z,97.05
2017-01-18T01:21:07.696Z,97.05
2017-01-18T01:23:20.434Z,97.05
2017-01-18T01:25:32.630Z,97
2017-01-18T01:27:46.637Z,97.11
2017-01-18T01:29:59.243Z,97.11
2017-01-18T01:32:06.667Z,97.11
2017-01-18T01:34:21.475Z,97.11
2017-01-18T01:36:33.756Z,97.11
2017-01-18T01:38:46.628Z,97.17
2017-01-18T01:40:58.923Z,97.17
2017-01-18T01:43:07.776Z,97.28
2017-01-18T01:45:20.082Z,97.28
2017-01-18T01:47:32.339Z,97.28
2017-01-18T01:49:44.694Z,97.28
2017-01-18T01:51:57.064Z,97.24
2017-01-18T01:54:10.683Z,97.34
2017-01-18T01:56:21.303Z,97.34
2017-01-18T01:58:33.653Z,97.34
2017-01-18T02:00:46.277Z,97.45
2017-01-18T02:02:58.985Z,97.41
2017-01-18T02:05:11.183Z,97.52
2017-01-18T02:07:23.987Z,97.52
2017-01-18T02:09:36.444Z,97.52
2017-01-18T02:11:50.307Z,97.52
2017-01-18T02:14:01.015Z,97.58
2017-01-18T02:16:14.413Z,97.58
2017-01-18T02:18:21.689Z,97.69
2017-01-18T02:20:34.063Z,97.69
2017-01-18T02:22:46.501Z,97.69
2017-01-18T02:24:59.524Z,97.79
2017-01-18T02:27:01.993Z,97.75
2017-01-18T02:29:15.634Z,97.75
2017-01-18T02:31:27.997Z,97.86
2017-01-18T02:33:36.402Z,97.86
2017-01-18T02:35:49.750Z,97.96
2017-01-18T02:38:02.478Z,97.92
2017-01-18T02:40:15.254Z,97.92
2017-01-18T02:42:28.110Z,98.02
2017-01-18T02:44:35.460Z,98.02
2017-01-18T02:46:51.302Z,98.02
2017-01-18T02:48:58.864Z,98.13
2017-01-18T02:51:11.886Z,98.09
2017-01-18T02:53:25.437Z,98.09
2017-01-18T02:55:38.323Z,98.19
2017-01-18T02:57:51.497Z,98.19
2017-01-18T03:00:06.409Z,98.3
2017-01-18T03:02:21.517Z,98.25
2017-01-18T03:04:30.833Z,98.25
2017-01-18T03:06:44.037Z,98.36
2017-01-18T03:08:56.820Z,98.36
2017-01-18T03:11:09.351Z,98.47
2017-01-18T03:13:16.734Z,98.43
2017-01-18T03:15:29.374Z,98.54
2017-01-18T03:17:41.869Z,98.54
2017-01-18T03:19:54.248Z,98.54
2017-01-18T03:22:06.459Z,98.64
2017-01-18T03:24:18.871Z,98.6
2017-01-18T03:26:31.260Z,98.6
2017-01-18T03:28:38.716Z,98.6
2017-01-18T03:30:51.013Z,98.7
2017-01-18T03:33:03.278Z,98.7
2017-01-18T03:35:15.680Z,98.7
2017-01-18T03:37:29.126Z,98.81
2017-01-18T03:39:41.611Z,98.77
2017-01-18T03:41:54.067Z,98.77
2017-01-18T03:44:07.167Z,98.77
2017-01-18T03:46:19.758Z,98.77
2017-01-18T03:48:32.744Z,98.87
2017-01-18T03:50:40.146Z,98.87
2017-01-18T03:52:52.591Z,98.87
2017-01-18T03:55:05.092Z,98.97
2017-01-18T03:57:17.651Z,98.97
2017-01-18T03:59:30.061Z,98.93
2017-01-18T04:01:37.380Z,98.93
2017-01-18T04:03:49.882Z,99.04
2017-01-18T04:05:57.245Z,99.04
2017-01-18T04:08:09.443Z,99.04
2017-01-18T04:10:22.680Z,99.15
2017-01-18T04:12:30.150Z,99.15
2017-01-18T04:14:42.585Z,99.15
2017-01-18T04:16:55.525Z,99.15
2017-01-18T04:19:11.082Z,99.21
2017-01-18T04:21:23.425Z,99.21
2017-01-18T04:23:35.999Z,99.32
2017-01-18T04:25:49.260Z,99.32
2017-01-18T04:28:01.851Z,99.32
2017-01-18T04:30:14.216Z,99.32
2017-01-18T04:32:26.739Z,99.32
2017-01-18T04:34:39.271Z,99.42
2017-01-18T04:36:46.791Z,99.38
2017-01-18T04:38:59.122Z,99.48
2017-01-18T04:41:06.683Z,99.48
2017-01-18T04:43:19.305Z,99.48
2017-01-18T04:45:31.702Z,99.48
2017-01-18T04:47:44.042Z,99.58
2017-01-18T04:49:56.526Z,99.58
2017-01-18T04:52:09.452Z,99.69
2017-01-18T04:54:22.223Z,99.65
2017-01-18T04:56:34.560Z,99.54
2017-01-18T04:58:46.775Z,99.65
2017-01-18T05:00:59.040Z,99.65
2017-01-18T05:03:11.289Z,99.65
2017-01-18T05:05:18.750Z,99.65
2017-01-18T05:07:31.132Z,99.76
2017-01-18T05:09:45.375Z,99.76
2017-01-18T05:11:59.021Z,99.76
2017-01-18T05:14:12.204Z,99.76
2017-01-18T05:16:28.160Z,99.71
2017-01-18T05:18:44.627Z,99.82
2017-01-18T05:20:59.698Z,99.82
2017-01-18T05:23:15.429Z,99.82
2017-01-18T05:25:23.978Z,99.82
2017-01-18T05:27:34.689Z,99.92
2017-01-18T05:29:48.083Z,99.92
2017-01-18T05:32:02.198Z,99.92
2017-01-18T05:34:11.110Z,99.92
2017-01-18T05:36:26.280Z,99.92
2017-01-18T05:38:41.116Z,99.99
2017-01-18T05:40:55.629Z,99.99
2017-01-18T05:43:11.784Z,99.99
2017-01-18T05:45:25.639Z,99.99
2017-01-18T05:47:42.827Z,99.99
2017-01-18T05:49:55.765Z,99.98
2017-01-18T05:52:09.677Z,99.98
2017-01-18T05:54:24.077Z,99.98
2017-01-18T05:56:36.690Z,99.98
2017-01-18T05:58:48.951Z,99.98
2017-01-18T06:01:01.790Z,99.98
2017-01-18T06:03:11.339Z,99.98
2017-01-18T06:05:23.546Z,99.99
2017-01-18T06:07:39.687Z,99.98
2017-01-18T06:09:52.961Z,99.99
2017-01-18T06:12:02.865Z,99.99
2017-01-18T06:14:18.620Z,99.99
2017-01-18T06:16:34.795Z,99.99
2017-01-18T06:18:48.075Z,99.99
2017-01-18T06:21:00.521Z,99.99
2017-01-18T06:23:15.252Z,99.99
2017-01-18T06:25:35.764Z,99.99
2017-01-18T06:27:57.529Z,99.99
2017-01-18T06:30:25.794Z,99.99
2017-01-18T06:32:33.441Z,99.99
2017-01-18T06:34:44.251Z,99.99
2017-01-18T06:36:58.285Z,99.99
2017-01-18T06:39:05.851Z,99.99
2017-01-18T06:41:19.066Z,99.99
2017-01-18T06:43:31.610Z,99.99
2017-01-18T06:45:43.993Z,99.99
2017-01-18T06:47:57.606Z,99.99
2017-01-18T06:50:10.981Z,99.99
2017-01-18T06:52:24.448Z,99.99
2017-01-18T06:54:38.460Z,99.99
2017-01-18T06:56:51.952Z,99.99
2017-01-18T06:59:04.202Z,99.99
2017-01-18T07:01:18.369Z,99.99
2017-01-18T07:03:30.903Z,99.99
2017-01-18T07:05:44.606Z,99.99
2017-01-18T07:07:58.384Z,99.99
2017-01-18T07:10:10.887Z,99.99
2017-01-18T07:12:19.904Z,99.99
2017-01-18T07:14:32.425Z,99.99
2017-01-18T07:16:45.338Z,99.99
2017-01-18T07:18:52.726Z,99.99
2017-01-18T07:21:08.745Z,99.99
2017-01-18T07:23:22.367Z,99.99
2017-01-18T07:25:30.494Z,99.99
2017-01-18T07:27:44.782Z,99.99
2017-01-18T07:29:57.040Z,99.99
2017-01-18T07:32:10.616Z,99.99
2017-01-18T07:34:23.749Z,99.99
2017-01-18T07:36:37.572Z,99.99
2017-01-18T07:38:50.262Z,99.99
2017-01-18T07:41:02.554Z,99.99
2017-01-18T07:43:15.310Z,99.99
2017-01-18T07:45:28.039Z,99.99
2017-01-18T07:47:43.634Z,99.99
2017-01-18T07:49:59.636Z,99.99
2017-01-18T07:52:12.920Z,99.99
2017-01-18T07:54:26.820Z,99.99
2017-01-18T07:56:40.150Z,99.99
2017-01-18T07:58:56.912Z,99.99
2017-01-18T08:01:15.295Z,99.99
2017-01-18T08:03:22.820Z,99.99
2017-01-18T08:05:36.329Z,99.99
2017-01-18T08:07:49.007Z,99.99
2017-01-18T08:09:59.039Z,99.99
2017-01-18T08:12:14.403Z,99.99
2017-01-18T08:14:33.430Z,99.99
2017-01-18T08:16:47.393Z,99.99
2017-01-18T08:19:01.250Z,99.99
2017-01-18T08:21:05.423Z,99.99
2017-01-18T08:23:19.579Z,99.99
2017-01-18T08:25:31.835Z,99.99
2017-01-18T08:27:42.493Z,99.99
2017-01-18T08:29:49.720Z,99.99
2017-01-18T08:31:56.893Z,99.99
2017-01-18T08:34:10.521Z,99.99
2017-01-18T08:36:23.424Z,99.99
2017-01-18T08:38:31.874Z,99.99
2017-01-18T08:40:44.219Z,99.99
2017-01-18T08:42:56.494Z,99.99
2017-01-18T08:45:04.173Z,99.99
2017-01-18T08:47:17.145Z,99.99
2017-01-18T08:49:30.231Z,99.99
2017-01-18T08:51:43.640Z,99.99
2017-01-18T08:53:56.157Z,99.99
2017-01-18T08:56:11.705Z,99.99
2017-01-18T08:58:26.435Z,99.99
2017-01-18T09:00:38.764Z,99.99
2017-01-18T09:02:52.377Z,99.99
2017-01-18T09:05:04.706Z,99.99
2017-01-18T09:07:16.978Z,99.99
2017-01-18T09:09:30.200Z,99.99
2017-01-18T09:11:45.557Z,99.99
2017-01-18T09:13:57.872Z,99.99
2017-01-18T09:16:10.200Z,99.99
2017-01-18T09:18:26.190Z,99.99
2017-01-18T09:20:39.150Z,99.99
2017-01-18T09:22:52.690Z,99.99
2017-01-18T09:25:06.375Z,99.99
2017-01-18T09:27:19.925Z,99.99
2017-01-18T09:29:34.635Z,99.99
2017-01-18T09:31:50.795Z,99.99
2017-01-18T09:34:06.355Z,99.99
2017-01-18T09:36:18.751Z,99.99
2017-01-18T09:38:33.131Z,99.99
2017-01-18T09:40:44.525Z,99.99
2017-01-18T09:43:00.799Z,99.99
2017-01-18T09:45:14.534Z,99.99
2017-01-18T09:47:27.190Z,99.99
2017-01-18T09:49:42.140Z,99.99
2017-01-18T09:51:56.837Z,99.99
2017-01-18T09:54:10.131Z,99.99
2017-01-18T09:56:23.096Z,99.99
2017-01-18T09:58:37.048Z,99.99
2017-01-18T10:00:52.393Z,99.99
2017-01-18T10:03:05.263Z,99.99
2017-01-18T10:05:13.317Z,99.99
2017-01-18T10:07:27.166Z,99.99
2017-01-18T10:09:41.492Z,99.99
2017-01-18T10:11:53.795Z,99.99
2017-01-18T10:14:06.750Z,99.99
2017-01-18T10:16:14.246Z,99.99
2017-01-18T10:18:21.777Z,99.99
2017-01-18T10:20:29.067Z,99.99
2017-01-18T10:22:39.801Z,99.99
2017-01-18T10:24:50.480Z,99.99
2017-01-18T10:27:02.702Z,99.99
2017-01-18T10:29:15.152Z,99.99
2017-01-18T10:31:27.471Z,99.99
2017-01-18T10:33:39.953Z,99.99
2017-01-18T10:35:47.481Z,99.99
2017-01-18T10:38:00.553Z,99.99
2017-01-18T10:40:13.151Z,99.99
2017-01-18T10:42:25.532Z,99.99
2017-01-18T10:44:32.769Z,99.99
2017-01-18T10:46:40.183Z,99.99
2017-01-18T10:48:47.547Z,99.99
2017-01-18T10:51:00.063Z,99.99
2017-01-18T10:53:07.404Z,99.99
2017-01-18T10:55:19.701Z,99.99
2017-01-18T10:57:26.945Z,99.99
2017-01-18T10:59:34.318Z,99.99
2017-01-18T11:01:46.717Z,99.99
2017-01-18T11:03:59.152Z,99.99
2017-01-18T11:06:11.407Z,99.99
2017-01-18T11:08:23.967Z,99.99
2017-01-18T11:10:36.377Z,99.99
2017-01-18T11:12:49.290Z,99.99
2017-01-18T11:15:01.757Z,99.99
2017-01-18T11:17:14.171Z,99.99
2017-01-18T11:19:26.734Z,99.99
2017-01-18T11:21:39.025Z,99.99
2017-01-18T11:23:51.348Z,99.99
2017-01-18T11:26:03.587Z,99.99
2017-01-18T11:28:15.861Z,99.99
2017-01-18T11:30:28.178Z,99.99
2017-01-18T11:32:40.543Z,99.99
2017-01-18T11:34:52.823Z,99.99
2017-01-18T11:37:05.069Z,99.99
2017-01-18T11:39:17.496Z,99.99
2017-01-18T11:41:29.986Z,99.99
2017-01-18T11:43:42.332Z,99.99
2017-01-18T11:45:54.717Z,99.99
2017-01-18T11:48:07.723Z,99.99
2017-01-18T11:50:20.460Z,99.99
2017-01-18T11:52:32.956Z,99.99
2017-01-18T11:54:40.240Z,99.99
2017-01-18T11:56:52.511Z,99.99
2017-01-18T11:58:59.886Z,99.99
2017-01-18T12:01:12.205Z,99.99
2017-01-18T12:03:30.761Z,99.99
2017-01-18T12:05:42.937Z,99.99
2017-01-18T12:07:55.351Z,99.99
2017-01-18T12:10:07.746Z,99.99
2017-01-18T12:12:19.943Z,99.99
2017-01-18T12:14:32.224Z,99.99
2017-01-18T12:16:44.618Z,99.99
2017-01-18T12:18:57.280Z,99.99
2017-01-18T12:21:09.700Z,99.99
2017-01-18T12:23:22.830Z,99.99
2017-01-18T12:25:38.262Z,99.99
2017-01-18T12:27:54.098Z,99.99
2017-01-18T12:30:06.457Z,99.99
2017-01-18T12:32:17.055Z,99.99
2017-01-18T12:34:30.384Z,99.99
2017-01-18T12:36:45.472Z,99.99
2017-01-18T12:39:01.113Z,99.99
2017-01-18T12:41:15.469Z,99.99
2017-01-18T12:43:28.932Z,99.99
2017-01-18T12:45:45.487Z,99.99
2017-01-18T12:48:00.878Z,99.99
2017-01-18T12:50:14.033Z,99.99
2017-01-18T12:52:29.487Z,99.99
2017-01-18T12:54:44.276Z,99.99
2017-01-18T12:57:03.548Z,99.99
2017-01-18T12:59:19.025Z,99.99
2017-01-18T13:01:36.297Z,99.99
2017-01-18T13:03:53.695Z,99.99
2017-01-18T13:06:05.831Z,99.99
2017-01-18T13:08:20.880Z,99.99
2017-01-18T13:10:35.892Z,99.99
2017-01-18T13:12:53.557Z,99.99
2017-01-18T13:15:06.735Z,99.99
2017-01-18T13:17:19.280Z,99.99
2017-01-18T13:19:29.437Z,99.99
2017-01-18T13:21:40.458Z,99.99
2017-01-18T13:23:53.101Z,99.99
2017-01-18T13:26:05.101Z,99.99
2017-01-18T13:28:24.035Z,99.99
2017-01-18T13:30:39.686Z,99.99
2017-01-18T13:32:56.110Z,99.99
2017-01-18T13:35:04.690Z,99.99
2017-01-18T13:37:22.523Z,99.99
2017-01-18T13:39:39.811Z,99.99
2017-01-18T13:41:55.363Z,99.99
2017-01-18T13:44:10.232Z,99.99
2017-01-18T13:46:24.451Z,99.99
2017-01-18T13:48:40.888Z,99.99
2017-01-18T13:50:56.517Z,99.99
2017-01-18T13:53:10.894Z,99.99
2017-01-18T13:55:20.690Z,99.99
2017-01-18T13:57:36.638Z,99.99
2017-01-18T13:59:50.761Z,99.99
2017-01-18T14:02:04.364Z,99.99
2017-01-18T14:06:35.669Z,99.99
2017-01-18T14:08:50.746Z,99.99
2017-01-18T14:11:08.115Z,99.99
2017-01-18T14:13:20.790Z,99.99
2017-01-18T14:15:34.617Z,99.99
2017-01-18T14:20:03.426Z,99.99
2017-01-18T14:22:18.655Z,99.99
2017-01-18T14:24:34.969Z,99.99
2017-01-18T14:26:51.895Z,99.99
2017-01-18T14:29:08.003Z,99.99
2017-01-18T14:31:23.657Z,99.99
2017-01-18T14:33:39.768Z,99.99
2017-01-18T14:35:54.792Z,99.99
2017-01-18T14:38:09.882Z,99.99
2017-01-18T14:40:26.649Z,99.99
2017-01-18T14:42:43.599Z,99.99
2017-01-18T14:45:02.328Z,99.99
2017-01-18T14:47:16.278Z,99.99
2017-01-18T14:49:28.924Z,99.99
2017-01-18T14:51:41.717Z,99.99
2017-01-18T14:53:54.178Z,99.99
2017-01-18T14:56:06.635Z,99.99
2017-01-18T14:58:19.036Z,99.99
2017-01-18T15:00:31.300Z,99.99
2017-01-18T15:02:43.808Z,99.99
2017-01-18T15:04:57.901Z,99.99
2017-01-18T15:07:13.455Z,99.99
2017-01-18T15:09:30.044Z,99.99
2017-01-18T15:11:45.965Z,99.99
2017-01-18T15:13:57.072Z,99.99
2017-01-18T15:16:13.420Z,99.99
2017-01-18T15:18:29.941Z,99.99
2017-01-18T15:20:43.369Z,99.99
2017-01-18T15:23:00.495Z,99.99
2017-01-18T15:25:16.233Z,99.99
2017-01-18T15:27:32.122Z,99.99
2017-01-18T15:29:49.186Z,99.99
2017-01-18T15:32:04.742Z,99.99
2017-01-18T15:34:20.973Z,99.99
2017-01-18T15:36:37.944Z,99.99
2017-01-18T15:38:53.536Z,99.99
2017-01-18T15:41:07.035Z,99.99
2017-01-18T15:43:19.321Z,99.99
2017-01-18T15:45:27.617Z,99.99
2017-01-18T15:47:40.030Z,99.99
2017-01-18T15:49:53.188Z,99.99
2017-01-18T15:52:00.975Z,99.99
2017-01-18T15:54:13.320Z,99.99
2017-01-18T15:56:26.944Z,99.99
2017-01-18T15:58:39.613Z,99.99
2017-01-18T16:00:52.102Z,99.99
2017-01-18T16:03:04.955Z,99.99
2017-01-18T16:05:17.208Z,99.99
2017-01-18T16:07:29.677Z,99.99
2017-01-18T16:09:45.032Z,99.99
2017-01-18T16:11:57.350Z,99.99
2017-01-18T16:14:04.836Z,99.99
2017-01-18T16:16:17.233Z,99.99
2017-01-18T16:18:29.870Z,99.99
2017-01-18T16:20:43.010Z,99.99
2017-01-18T16:22:55.236Z,99.99
2017-01-18T16:25:08.675Z,99.99
2017-01-18T16:27:25.126Z,99.99
2017-01-18T16:29:40.200Z,99.99
2017-01-18T16:31:54.110Z,99.99
2017-01-18T16:34:09.235Z,99.99
2017-01-18T16:36:20.202Z,99.99
2017-01-18T16:38:34.595Z,99.99
2017-01-18T16:40:50.475Z,99.99
2017-01-18T16:43:04.622Z,99.99
2017-01-18T16:45:18.829Z,99.99
2017-01-18T16:47:32.909Z,99.99
2017-01-18T16:49:46.071Z,99.99
2017-01-18T16:52:00.450Z,99.99
2017-01-18T16:54:10.121Z,99.99
2017-01-18T16:58:37.994Z,99.99
2017-01-18T17:00:52.221Z,99.99
2017-01-18T17:03:01.492Z,99.99
2017-01-18T17:05:13.707Z,99.99
2017-01-18T17:07:23.661Z,99.99
2017-01-18T17:09:37.891Z,99.99
2017-01-18T17:11:51.456Z,99.99
2017-01-18T17:13:59.365Z,99.99
2017-01-18T17:16:12.571Z,99.99
2017-01-18T17:18:26.514Z,99.99
2017-01-18T17:20:40.841Z,99.99
2017-01-18T17:22:55.126Z,99.99
2017-01-18T17:25:10.316Z,99.99
2017-01-18T17:27:26.442Z,99.99
2017-01-18T17:29:41.402Z,99.99
2017-01-18T17:31:54.673Z,99.99
2017-01-18T17:34:10.590Z,99.99
2017-01-18T17:36:25.113Z,99.99
2017-01-18T17:38:37.519Z,99.99
2017-01-18T17:40:49.831Z,99.99
2017-01-18T17:43:01.991Z,99.99
2017-01-18T17:45:14.869Z,99.99
2017-01-18T17:47:27.211Z,99.99
2017-01-18T17:49:35.825Z,99.99
2017-01-18T17:51:43.919Z,99.99
2017-01-18T17:53:51.371Z,99.99
2017-01-18T17:56:03.944Z,99.99
2017-01-18T17:58:20.005Z,99.99
2017-01-18T18:00:37.955Z,99.99
2017-01-18T18:02:53.483Z,99.99
2017-01-18T18:05:08.143Z,99.99
2017-01-18T18:07:18.905Z,99.99
2017-01-18T18:09:34.215Z,99.99
2017-01-18T18:11:48.807Z,99.99
2017-01-18T18:14:04.180Z,99.99
2017-01-18T18:16:17.003Z,99.99
2017-01-18T18:18:24.437Z,99.99
2017-01-18T18:20:36.988Z,99.99
2017-01-18T18:22:49.225Z,99.99
2017-01-18T18:24:56.631Z,99.99
2017-01-18T18:27:09.482Z,99.99
2017-01-18T18:29:22.553Z,99.99
2017-01-18T18:31:36.042Z,99.99
2017-01-18T18:33:48.326Z,99.99
2017-01-18T18:36:01.137Z,99.99
2017-01-18T18:38:13.465Z,99.99
2017-01-18T18:40:21.001Z,99.99
2017-01-18T18:42:33.459Z,99.99
2017-01-18T18:44:45.706Z,99.99
2017-01-18T18:46:58.181Z,99.99
2017-01-18T18:49:10.477Z,99.99
2017-01-18T18:51:21.109Z,99.99
2017-01-18T18:53:33.842Z,99.99
2017-01-18T18:55:46.574Z,99.99
2017-01-18T18:57:58.981Z,99.99
2017-01-18T19:00:14.234Z,99.99
2017-01-18T19:02:26.701Z,99.99
2017-01-18T19:04:41.225Z,99.99
2017-01-18T19:06:53.781Z,99.99
2017-01-18T19:09:06.906Z,99.99
2017-01-18T19:11:19.195Z,99.99
2017-01-18T19:13:31.611Z,99.99
2017-01-18T19:15:44.026Z,99.99
2017-01-18T19:17:56.349Z,99.99
2017-01-18T19:20:09.496Z,99.99
2017-01-18T19:22:21.917Z,99.99
2017-01-18T19:24:34.877Z,99.99
2017-01-18T19:26:47.315Z,99.99
2017-01-18T19:28:59.899Z,99.99
2017-01-18T19:31:13.005Z,99.99
2017-01-18T19:33:25.402Z,99.99
2017-01-18T19:35:38.019Z,99.99
2017-01-18T19:37:50.442Z,99.99
2017-01-18T19:40:03.084Z,99.99
2017-01-18T19:42:16.148Z,99.99
2017-01-18T19:44:28.473Z,99.99
2017-01-18T19:46:40.983Z,99.99
2017-01-18T19:48:55.209Z,99.99
2017-01-18T19:51:02.528Z,99.99
2017-01-18T19:53:15.211Z,99.99
2017-01-18T19:55:27.782Z,99.99
2017-01-18T19:57:40.156Z,99.99
2017-01-18T19:59:52.531Z,99.99
2017-01-18T20:02:05.014Z,99.99
2017-01-18T20:04:12.501Z,99.99
2017-01-18T20:06:19.778Z,99.99
2017-01-18T20:08:32.024Z,99.99
2017-01-18T20:10:45.856Z,99.99
2017-01-18T20:12:58.233Z,99.99
2017-01-18T20:15:10.804Z,99.99
2017-01-18T20:17:23.191Z,99.99
2017-01-18T20:19:35.724Z,99.99
2017-01-18T20:21:48.401Z,99.99
2017-01-18T20:24:00.676Z,99.99
2017-01-18T20:26:08.175Z,99.99
2017-01-18T20:28:20.422Z,99.99
2017-01-18T20:30:32.738Z,99.99
2017-01-18T20:32:45.108Z,99.99
2017-01-18T20:34:57.465Z,99.99
2017-01-18T20:37:13.389Z,99.99
2017-01-18T20:39:26.948Z,99.99
2017-01-18T20:41:40.615Z,99.99
2017-01-18T20:43:48.514Z,99.99
2017-01-18T20:46:01.449Z,99.99
2017-01-18T20:48:14.012Z,99.99
2017-01-18T20:50:26.968Z,99.99
2017-01-18T20:52:39.439Z,99.99
2017-01-18T20:54:53.072Z,99.99
2017-01-18T20:57:07.097Z,99.99
2017-01-18T20:59:15.350Z,99.99
2017-01-18T21:01:30.707Z,99.99
2017-01-18T21:03:39.333Z,99.99
2017-01-18T21:05:47.513Z,99.99
2017-01-18T21:08:01.254Z,99.99
2017-01-18T21:10:12.380Z,99.99
2017-01-18T21:12:28.639Z,99.99
2017-01-18T21:14:58.423Z,99.99
2017-01-18T21:17:10.984Z,99.99
2017-01-18T21:19:23.970Z,99.99
2017-01-18T21:21:36.579Z,99.99
2017-01-18T21:23:48.849Z,99.99
2017-01-18T21:26:04.867Z,99.99
2017-01-18T21:28:21.738Z,99.99
2017-01-18T21:30:34.247Z,99.99
2017-01-18T21:32:46.683Z,99.99
2017-01-18T21:34:58.928Z,99.99
2017-01-18T21:37:11.426Z,99.99
2017-01-18T21:39:23.865Z,99.99
2017-01-18T21:41:36.510Z,99.99
2017-01-18T21:43:48.973Z,99.99
2017-01-18T21:46:01.372Z,99.99
2017-01-18T21:48:13.867Z,99.99
2017-01-18T21:50:21.164Z,99.99
2017-01-18T21:52:37.893Z,99.99
2017-01-18T21:54:50.253Z,99.99
2017-01-18T21:57:13.772Z,99.99
2017-01-18T21:59:27.575Z,99.99
2017-01-18T22:01:40.031Z,99.99
2017-01-18T22:03:52.362Z,99.99
2017-01-18T22:06:04.632Z,99.99
2017-01-18T22:08:16.994Z,99.99
2017-01-18T22:10:29.486Z,99.99
2017-01-18T22:12:41.857Z,99.99
2017-01-18T22:14:49.282Z,99.99
2017-01-18T22:17:01.773Z,99.99
2017-01-18T22:19:15.636Z,99.99
2017-01-18T22:21:23.035Z,99.99
2017-01-18T22:23:35.769Z,99.99
2017-01-18T22:25:47.965Z,99.99
2017-01-18T22:28:00.338Z,99.99
2017-01-18T22:30:12.988Z,99.99
2017-01-18T22:32:25.606Z,99.99
2017-01-18T22:34:37.903Z,99.99
2017-01-18T22:36:50.212Z,99.99
2017-01-18T22:39:02.463Z,99.99
2017-01-18T22:41:09.650Z,99.99
2017-01-18T22:43:21.968Z,99.99
2017-01-18T22:45:34.226Z,99.99
2017-01-18T22:47:46.648Z,99.99
2017-01-18T22:49:58.817Z,99.99
2017-01-18T22:52:11.273Z,99.99
2017-01-18T22:54:23.632Z,99.99
2017-01-18T22:56:36.065Z,99.99
2017-01-18T22:58:48.510Z,99.99
2017-01-18T23:00:55.792Z,99.99
2017-01-18T23:03:03.235Z,99.99
2017-01-18T23:05:15.768Z,99.99
2017-01-18T23:07:28.446Z,99.99
2017-01-18T23:09:35.835Z,99.99
2017-01-18T23:11:48.240Z,99.99
2017-01-18T23:14:00.497Z,99.99
2017-01-18T23:16:12.849Z,99.99
2017-01-18T23:18:25.243Z,99.99
2017-01-18T23:20:37.476Z,99.99
2017-01-18T23:22:49.761Z,99.99
2017-01-18T23:24:52.160Z,99.99
2017-01-18T23:27:04.675Z,99.99
2017-01-18T23:29:17.140Z,99.99
2017-01-18T23:31:29.629Z,99.99
2017-01-18T23:33:42.027Z,99.99
2017-01-18T23:35:54.292Z,99.99
2017-01-18T23:38:08.101Z,99.99
2017-01-18T23:40:22.246Z,99.99
2017-01-18T23:42:36.475Z,99.99
2017-01-18T23:44:48.692Z,99.99
2017-01-18T23:47:01.854Z,99.99
2017-01-18T23:49:15.257Z,99.99
2017-01-18T23:51:30.115Z,99.99
2017-01-18T23:53:46.752Z,99.99
2017-01-18T23:56:01.809Z,99.99
2017-01-18T23:58:12.500Z,99.99
